createdAt,value
2023-03-11T00:00:49.695Z,2.08
2023-03-11T00:03:51.738Z,1.98
2023-03-11T00:06:54.096Z,2.02
2023-03-11T00:09:55.874Z,2.03
2023-03-11T00:12:59.332Z,2.00
2023-03-11T00:16:01.350Z,1.99
2023-03-11T00:19:03.290Z,1.96
2023-03-11T00:22:05.147Z,1.93
2023-03-11T00:25:07.281Z,1.94
2023-03-11T00:28:10.591Z,1.94
2023-03-11T00:31:13.872Z,1.94
2023-03-11T00:34:15.764Z,1.94
2023-03-11T00:37:17.597Z,1.92
2023-03-11T00:40:21.149Z,1.93
2023-03-11T00:43:22.977Z,1.89
2023-03-11T00:46:24.973Z,1.87
2023-03-11T00:49:26.931Z,1.83
2023-03-11T00:52:29.139Z,1.90
2023-03-11T00:55:33.587Z,1.92
2023-03-11T00:58:37.312Z,1.93
2023-03-11T01:01:39.394Z,1.92
2023-03-11T01:04:43.776Z,1.96
2023-03-11T01:07:46.092Z,1.95
2023-03-11T01:10:47.964Z,1.91
2023-03-11T01:13:52.878Z,1.88
2023-03-11T01:16:57.319Z,1.83
2023-03-11T01:19:59.174Z,1.81
2023-03-11T01:23:01.167Z,1.79
2023-03-11T01:26:03.494Z,1.80
2023-03-11T01:29:05.519Z,1.82
2023-03-11T01:32:07.857Z,1.80
2023-03-11T01:35:17.664Z,1.81
2023-03-11T01:38:19.474Z,1.82
2023-03-11T01:41:24.858Z,1.79
2023-03-11T01:44:27.070Z,1.80
2023-03-11T01:47:36.534Z,1.73
2023-03-11T01:50:45.074Z,1.76
2023-03-11T01:53:47.350Z,1.70
2023-03-11T01:56:51.630Z,1.67
2023-03-11T01:59:58.662Z,1.66
2023-03-11T02:03:06.457Z,1.65
2023-03-11T02:06:22.000Z,1.66
2023-03-11T02:09:27.118Z,1.63
2023-03-11T02:12:31.341Z,1.66
2023-03-11T02:15:33.681Z,1.66
2023-03-11T02:18:36.680Z,1.68
2023-03-11T02:21:39.899Z,1.69
2023-03-11T02:24:57.954Z,1.66
2023-03-11T02:28:03.126Z,1.61
2023-03-11T02:31:05.206Z,1.54
2023-03-11T02:34:15.966Z,1.42
2023-03-11T02:37:18.599Z,1.40
2023-03-11T02:41:02.051Z,1.30
2023-03-11T02:44:08.381Z,1.33
2023-03-11T02:47:10.907Z,1.26
2023-03-11T02:50:18.809Z,1.20
2023-03-11T02:53:21.046Z,1.20
2023-03-11T02:56:23.182Z,1.23
2023-03-11T02:59:25.099Z,1.27
2023-03-11T03:02:28.772Z,1.28
2023-03-11T03:05:33.521Z,1.31
2023-03-11T03:08:36.932Z,1.31
2023-03-11T03:11:39.050Z,1.28
2023-03-11T03:14:41.009Z,1.26
2023-03-11T03:17:43.234Z,1.23
2023-03-11T03:20:45.301Z,1.25
2023-03-11T03:23:48.141Z,1.26
2023-03-11T03:26:52.113Z,1.26
2023-03-11T03:29:54.274Z,1.24
2023-03-11T03:32:56.862Z,1.25
2023-03-11T03:35:58.972Z,1.25
2023-03-11T03:39:05.654Z,1.30
2023-03-11T03:42:14.148Z,1.35
2023-03-11T03:45:16.887Z,1.33
2023-03-11T03:48:21.333Z,1.33
2023-03-11T03:51:23.425Z,1.34
2023-03-11T03:54:38.317Z,1.36
2023-03-11T03:57:42.978Z,1.39
2023-03-11T04:00:47.994Z,1.39
2023-03-11T04:03:50.301Z,1.44
2023-03-11T04:06:52.240Z,1.44
2023-03-11T04:09:54.588Z,1.45
2023-03-11T04:12:57.186Z,1.41
2023-03-11T04:15:59.577Z,1.43
2023-03-11T04:19:01.792Z,1.44
2023-03-11T04:22:04.163Z,1.47
2023-03-11T04:25:09.279Z,1.45
2023-03-11T04:28:12.176Z,1.49
2023-03-11T04:31:14.168Z,1.45
2023-03-11T04:34:16.439Z,1.49
2023-03-11T04:37:18.654Z,1.46
2023-03-11T04:40:20.717Z,1.49
2023-03-11T04:43:22.857Z,1.50
2023-03-11T04:46:24.898Z,1.56
2023-03-11T04:49:27.036Z,1.54
2023-03-11T04:52:29.342Z,1.53
2023-03-11T04:55:31.559Z,1.57
2023-03-11T04:58:33.895Z,1.59
2023-03-11T05:01:36.062Z,1.63
2023-03-11T05:04:40.654Z,1.61
2023-03-11T05:07:42.960Z,1.58
2023-03-11T05:10:48.086Z,1.62
2023-03-11T05:13:50.545Z,1.62
2023-03-11T05:16:53.278Z,1.69
2023-03-11T05:19:55.253Z,1.73
2023-03-11T05:23:06.064Z,1.77
2023-03-11T05:26:10.386Z,1.79
2023-03-11T05:29:13.805Z,1.77
2023-03-11T05:32:15.996Z,1.81
2023-03-11T05:35:20.848Z,1.78
2023-03-11T05:38:25.450Z,1.86
2023-03-11T05:41:29.692Z,1.93
2023-03-11T05:44:36.075Z,1.90
2023-03-11T05:47:38.639Z,1.88
2023-03-11T05:50:41.308Z,1.87
2023-03-11T05:53:51.147Z,1.95
2023-03-11T05:57:01.377Z,2.02
2023-03-11T06:00:10.523Z,2.10
2023-03-11T06:03:15.186Z,2.07
2023-03-11T06:06:17.883Z,2.12
2023-03-11T06:09:21.116Z,2.11
2023-03-11T06:12:22.987Z,2.18
2023-03-11T06:15:36.086Z,2.10
2023-03-11T06:18:38.725Z,2.14
2023-03-11T06:21:41.316Z,2.17
2023-03-11T06:24:43.818Z,2.23
2023-03-11T06:27:51.665Z,2.29
2023-03-11T06:30:56.887Z,2.35
2023-03-11T06:33:59.576Z,2.31
2023-03-11T06:37:02.685Z,2.31
2023-03-11T06:40:07.587Z,2.31
2023-03-11T06:43:10.028Z,2.34
2023-03-11T06:46:25.128Z,2.42
2023-03-11T06:49:28.622Z,2.48
2023-03-11T06:52:31.904Z,2.56
2023-03-11T06:55:35.486Z,2.56
2023-03-11T06:58:40.469Z,2.58
2023-03-11T07:01:46.564Z,2.65
2023-03-11T07:04:50.283Z,2.74
2023-03-11T07:07:55.747Z,2.65
2023-03-11T07:11:09.438Z,2.70
2023-03-11T07:14:11.493Z,2.78
2023-03-11T07:17:17.768Z,3.02
2023-03-11T07:20:23.953Z,3.17
2023-03-11T07:23:25.840Z,3.36
2023-03-11T07:26:29.277Z,3.45
2023-03-11T07:29:33.438Z,3.44
2023-03-11T07:32:35.369Z,3.49
2023-03-11T07:35:37.301Z,3.61
2023-03-11T07:38:40.983Z,3.69
2023-03-11T07:41:44.354Z,3.77
2023-03-11T07:44:51.870Z,3.78
2023-03-11T07:47:53.756Z,3.85
2023-03-11T07:51:11.761Z,3.84
2023-03-11T07:54:13.967Z,3.89
2023-03-11T07:57:17.296Z,4.02
2023-03-11T08:00:21.648Z,4.02
2023-03-11T08:03:24.866Z,4.14
2023-03-11T08:06:31.234Z,4.20
2023-03-11T08:09:35.159Z,4.29
2023-03-11T08:12:37.057Z,4.32
2023-03-11T08:15:41.149Z,4.43
2023-03-11T08:18:47.357Z,4.46
2023-03-11T08:21:49.231Z,4.53
2023-03-11T08:24:52.973Z,4.61
2023-03-11T08:27:57.598Z,4.64
2023-03-11T08:31:00.299Z,4.73
2023-03-11T08:34:09.089Z,4.84
2023-03-11T08:37:11.255Z,4.94
2023-03-11T08:40:13.407Z,5.09
2023-03-11T08:43:15.811Z,5.21
2023-03-11T08:46:27.193Z,5.27
2023-03-11T08:49:29.292Z,5.33
2023-03-11T08:52:33.600Z,5.42
2023-03-11T08:55:35.562Z,5.46
2023-03-11T08:58:37.757Z,5.50
2023-03-11T09:01:42.067Z,5.56
2023-03-11T09:04:43.994Z,5.64
2023-03-11T09:07:46.135Z,5.71
2023-03-11T09:10:48.015Z,5.83
2023-03-11T09:13:50.795Z,5.94
2023-03-11T09:16:55.146Z,6.14
2023-03-11T09:19:57.294Z,6.23
2023-03-11T09:22:59.175Z,6.41
2023-03-11T09:26:01.017Z,6.51
2023-03-11T09:29:02.870Z,6.54
2023-03-11T09:32:05.274Z,6.57
2023-03-11T09:35:07.278Z,6.62
2023-03-11T09:38:09.207Z,6.79
2023-03-11T09:41:16.990Z,6.86
2023-03-11T09:44:37.328Z,6.91
2023-03-11T09:48:17.790Z,6.99
2023-03-11T09:51:31.132Z,7.07
2023-03-11T09:54:41.832Z,7.07
2023-03-11T09:57:44.491Z,7.09
2023-03-11T10:00:48.668Z,7.09
2023-03-11T10:03:55.133Z,7.09
2023-03-11T10:07:00.114Z,7.06
2023-03-11T10:10:02.207Z,7.12
2023-03-11T10:13:25.826Z,7.08
2023-03-11T10:16:48.429Z,7.00
2023-03-11T10:19:56.492Z,7.02
2023-03-11T10:23:18.779Z,7.04
2023-03-11T10:26:23.617Z,7.10
2023-03-11T10:29:34.713Z,7.15
2023-03-11T10:32:46.697Z,7.21
2023-03-11T10:35:55.245Z,7.21
2023-03-11T10:38:57.551Z,7.19
2023-03-11T10:42:05.137Z,7.16
2023-03-11T10:45:13.973Z,7.21
2023-03-11T10:48:17.758Z,7.20
2023-03-11T10:51:26.786Z,7.19
2023-03-11T10:54:46.221Z,7.19
2023-03-11T10:57:50.268Z,7.17
2023-03-11T11:01:31.950Z,7.16
2023-03-11T11:04:41.220Z,7.13
2023-03-11T11:07:46.561Z,7.12
2023-03-11T11:11:03.001Z,7.14
2023-03-11T11:14:05.486Z,7.08
2023-03-11T11:17:28.980Z,7.10
2023-03-11T11:20:32.980Z,7.11
2023-03-11T11:23:46.831Z,6.98
2023-03-11T11:27:05.344Z,7.01
2023-03-11T11:30:11.318Z,7.01
2023-03-11T11:33:30.057Z,6.95
2023-03-11T11:36:36.946Z,7.02
2023-03-11T11:39:52.176Z,7.03
2023-03-11T11:43:18.405Z,7.03
2023-03-11T11:46:31.409Z,7.01
2023-03-11T11:49:34.704Z,6.88
2023-03-11T11:52:45.223Z,6.97
2023-03-11T11:55:53.981Z,6.94
2023-03-11T11:58:55.912Z,6.91
2023-03-11T12:02:32.921Z,6.91
2023-03-11T12:05:45.631Z,6.89
2023-03-11T12:09:06.069Z,6.87
2023-03-11T12:12:40.296Z,6.94
2023-03-11T12:15:46.695Z,6.95
2023-03-11T12:19:13.129Z,7.05
2023-03-11T12:22:36.777Z,7.12
2023-03-11T12:25:53.421Z,7.17
2023-03-11T12:29:01.313Z,7.21
2023-03-11T12:32:04.073Z,7.25
2023-03-11T12:35:30.291Z,7.32
2023-03-11T12:38:35.757Z,7.38
2023-03-11T12:41:42.206Z,7.45
2023-03-11T12:44:45.703Z,7.44
2023-03-11T12:48:26.287Z,7.49
2023-03-11T12:51:34.338Z,7.50
2023-03-11T12:54:37.414Z,7.59
2023-03-11T12:57:48.318Z,7.58
2023-03-11T13:01:18.769Z,7.58
2023-03-11T13:04:42.659Z,7.65
2023-03-11T13:07:54.143Z,7.69
2023-03-11T13:10:56.719Z,7.75
2023-03-11T13:14:18.013Z,7.78
2023-03-11T13:17:33.534Z,7.83
2023-03-11T13:20:44.514Z,7.83
2023-03-11T13:23:46.424Z,7.83
2023-03-11T13:27:03.374Z,7.93
2023-03-11T13:30:23.740Z,7.98
2023-03-11T13:33:43.569Z,7.94
2023-03-11T13:37:09.651Z,7.95
2023-03-11T13:40:36.599Z,7.91
2023-03-11T13:43:44.995Z,7.96
2023-03-11T13:46:55.437Z,7.97
2023-03-11T13:50:02.780Z,8.06
2023-03-11T13:53:17.627Z,8.12
2023-03-11T13:56:28.501Z,8.09
2023-03-11T13:59:33.783Z,8.14
2023-03-11T14:02:36.028Z,8.09
2023-03-11T14:05:46.431Z,8.13
2023-03-11T14:08:56.419Z,8.15
2023-03-11T14:12:05.394Z,8.16
2023-03-11T14:15:21.764Z,8.18
2023-03-11T14:18:34.238Z,8.19
2023-03-11T14:21:36.104Z,8.16
2023-03-11T14:24:39.698Z,8.20
2023-03-11T14:27:50.391Z,8.22
2023-03-11T14:30:57.731Z,8.25
2023-03-11T14:34:07.228Z,8.32
2023-03-11T14:37:34.652Z,8.31
2023-03-11T14:40:42.173Z,8.34
2023-03-11T14:43:49.736Z,8.35
2023-03-11T14:46:53.354Z,8.37
2023-03-11T14:49:57.278Z,8.45
2023-03-11T14:53:17.778Z,8.42
2023-03-11T14:56:23.815Z,8.42
2023-03-11T14:59:32.410Z,8.39
2023-03-11T15:02:40.346Z,8.45
2023-03-11T15:05:55.850Z,8.45
2023-03-11T15:09:03.794Z,8.43
2023-03-11T15:12:06.093Z,8.46
2023-03-11T15:15:23.931Z,8.47
2023-03-11T15:18:32.099Z,8.47
2023-03-11T15:21:34.603Z,8.45
2023-03-11T15:24:37.747Z,8.49
2023-03-11T15:27:40.152Z,8.42
2023-03-11T15:30:45.923Z,8.47
2023-03-11T15:33:49.263Z,8.45
2023-03-11T15:36:55.473Z,8.44
2023-03-11T15:40:11.667Z,8.44
2023-03-11T15:43:23.976Z,8.45
2023-03-11T15:46:26.231Z,8.43
2023-03-11T15:49:30.164Z,8.43
2023-03-11T15:52:32.001Z,8.46
2023-03-11T15:55:33.981Z,8.40
2023-03-11T15:58:37.992Z,8.39
2023-03-11T16:01:39.922Z,8.43
2023-03-11T16:04:43.068Z,8.45
2023-03-11T16:07:46.764Z,8.43
2023-03-11T16:10:48.642Z,8.48
2023-03-11T16:13:50.509Z,8.52
2023-03-11T16:16:52.359Z,8.48
2023-03-11T16:19:54.242Z,8.46
2023-03-11T16:23:02.504Z,8.52
2023-03-11T16:26:05.640Z,8.46
2023-03-11T16:29:18.654Z,8.48
2023-03-11T16:32:22.853Z,8.45
2023-03-11T16:35:25.467Z,8.41
2023-03-11T16:38:27.678Z,8.41
2023-03-11T16:41:29.540Z,8.44
2023-03-11T16:44:31.655Z,8.46
2023-03-11T16:47:33.535Z,8.49
2023-03-11T16:50:37.873Z,8.53
2023-03-11T16:53:39.835Z,8.57
2023-03-11T16:56:41.964Z,8.57
2023-03-11T16:59:45.658Z,8.56
2023-03-11T17:02:47.532Z,8.51
2023-03-11T17:05:49.944Z,8.51
2023-03-11T17:08:51.976Z,8.49
2023-03-11T17:11:53.844Z,8.50
2023-03-11T17:14:56.215Z,8.45
2023-03-11T17:17:58.747Z,8.41
2023-03-11T17:21:02.276Z,8.43
2023-03-11T17:24:04.269Z,8.39
2023-03-11T17:27:06.616Z,8.40
2023-03-11T17:30:09.464Z,8.37
2023-03-11T17:33:11.308Z,8.31
2023-03-11T17:36:16.351Z,8.39
2023-03-11T17:39:18.185Z,8.40
2023-03-11T17:42:20.248Z,8.40
2023-03-11T17:45:22.114Z,8.47
2023-03-11T17:48:23.961Z,8.43
2023-03-11T17:51:26.440Z,8.51
2023-03-11T17:54:28.291Z,8.49
2023-03-11T17:57:33.597Z,8.50
2023-03-11T18:00:39.329Z,8.52
2023-03-11T18:03:41.655Z,8.53
2023-03-11T18:06:43.543Z,8.57
2023-03-11T18:09:51.638Z,8.60
2023-03-11T18:12:53.593Z,8.62
2023-03-11T18:16:05.607Z,8.62
2023-03-11T18:19:07.540Z,8.64
2023-03-11T18:22:09.468Z,8.68
2023-03-11T18:25:11.474Z,8.63
2023-03-11T18:28:13.305Z,8.67
2023-03-11T18:31:18.227Z,8.65
2023-03-11T18:34:23.004Z,8.68
2023-03-11T18:37:25.225Z,8.69
2023-03-11T18:40:28.054Z,8.65
2023-03-11T18:43:29.783Z,8.57
2023-03-11T18:46:41.547Z,8.60
2023-03-11T18:49:43.629Z,8.58
2023-03-11T18:52:47.807Z,8.58
2023-03-11T18:55:50.740Z,8.58
2023-03-11T18:58:52.762Z,8.58
2023-03-11T19:01:56.930Z,8.58
2023-03-11T19:04:59.036Z,8.52
2023-03-11T19:08:00.903Z,8.54
2023-03-11T19:11:10.734Z,8.56
2023-03-11T19:14:13.072Z,8.50
2023-03-11T19:17:16.541Z,8.51
2023-03-11T19:20:19.222Z,8.51
2023-03-11T19:23:21.184Z,8.56
2023-03-11T19:26:41.393Z,8.54
2023-03-11T19:29:45.353Z,8.50
2023-03-11T19:32:54.880Z,8.48
2023-03-11T19:36:04.722Z,8.50
2023-03-11T19:39:07.521Z,8.53
2023-03-11T19:42:09.411Z,8.50
2023-03-11T19:45:17.059Z,8.48
2023-03-11T19:48:20.189Z,8.49
2023-03-11T19:51:22.074Z,8.51
2023-03-11T19:54:24.011Z,8.52
2023-03-11T19:57:29.450Z,8.50
2023-03-11T20:00:31.501Z,8.51
2023-03-11T20:03:33.370Z,8.50
2023-03-11T20:06:35.264Z,8.54
2023-03-11T20:09:37.090Z,8.55
2023-03-11T20:12:41.375Z,8.51
2023-03-11T20:15:47.373Z,8.53
2023-03-11T20:18:50.523Z,8.49
2023-03-11T20:21:52.476Z,8.51
2023-03-11T20:24:54.366Z,8.51
2023-03-11T20:27:59.737Z,8.52
2023-03-11T20:31:07.434Z,8.54
2023-03-11T20:34:09.598Z,8.54
2023-03-11T20:37:11.990Z,8.46
2023-03-11T20:40:15.967Z,8.54
2023-03-11T20:43:17.853Z,8.55
2023-03-11T20:46:19.815Z,8.58
2023-03-11T20:49:22.071Z,8.56
2023-03-11T20:52:24.320Z,8.57
2023-03-11T20:55:26.203Z,8.57
2023-03-11T20:58:28.053Z,8.62
2023-03-11T21:01:31.903Z,8.60
2023-03-11T21:04:35.570Z,8.56
2023-03-11T21:07:37.977Z,8.56
2023-03-11T21:10:40.065Z,8.60
2023-03-11T21:13:44.637Z,8.59
2023-03-11T21:16:46.737Z,8.58
2023-03-11T21:19:48.756Z,8.62
2023-03-11T21:22:50.843Z,8.67
2023-03-11T21:26:03.928Z,8.70
2023-03-11T21:29:05.772Z,8.69
2023-03-11T21:32:07.699Z,8.63
2023-03-11T21:35:09.739Z,8.68
2023-03-11T21:38:21.239Z,8.64
2023-03-11T21:41:26.241Z,8.67
2023-03-11T21:44:28.463Z,8.61
2023-03-11T21:47:31.509Z,8.68
2023-03-11T21:50:33.624Z,8.68
2023-03-11T21:53:35.627Z,8.67
2023-03-11T21:56:37.503Z,8.66
2023-03-11T21:59:41.813Z,8.67
2023-03-11T22:02:43.703Z,8.63
2023-03-11T22:05:45.979Z,8.68
2023-03-11T22:08:48.565Z,8.77
2023-03-11T22:11:50.656Z,8.72
2023-03-11T22:14:52.634Z,8.75
2023-03-11T22:17:56.025Z,8.72
2023-03-11T22:20:59.779Z,8.77
2023-03-11T22:24:03.844Z,8.78
2023-03-11T22:27:05.759Z,8.74
2023-03-11T22:30:08.744Z,8.85
2023-03-11T22:33:15.912Z,8.81
2023-03-11T22:36:17.913Z,8.89
2023-03-11T22:39:19.811Z,8.87
2023-03-11T22:42:21.812Z,8.86
2023-03-11T22:45:23.794Z,8.90
2023-03-11T22:48:25.707Z,8.89
2023-03-11T22:51:27.635Z,8.87
2023-03-11T22:54:29.661Z,8.92
2023-03-11T22:57:38.707Z,8.91
2023-03-11T23:00:44.214Z,8.92
2023-03-11T23:03:46.202Z,8.94
2023-03-11T23:06:49.244Z,8.90
2023-03-11T23:09:51.162Z,8.88
2023-03-11T23:12:53.058Z,8.90
2023-03-11T23:15:57.322Z,8.88
2023-03-11T23:19:01.676Z,8.86
2023-03-11T23:22:04.096Z,8.86
2023-03-11T23:25:08.325Z,8.76
2023-03-11T23:28:10.206Z,8.82
2023-03-11T23:31:14.485Z,8.82
2023-03-11T23:34:16.391Z,8.82
2023-03-11T23:37:23.799Z,8.85
2023-03-11T23:40:26.289Z,8.80
2023-03-11T23:43:28.084Z,8.82
2023-03-11T23:46:30.129Z,8.80
2023-03-11T23:49:32.046Z,8.77
2023-03-11T23:52:34.768Z,8.80
2023-03-11T23:55:38.166Z,8.76
2023-03-11T23:58:43.664Z,8.76
